The Official Home Page Of The Professional Rodeo Cowboys Association PRCA RAM WORLD STANDINGS
ProRodeoTv.Com
Red

PRCA Stock Statistics

SEARCH BY:
Stock Rodeo Contestant Stock Contractor

Dustin Marberry

EVENT:
Unofficial results reflect placement at time of Web posting and can change.

SEASON BREAKDOWN

Season Attempts Qual Rides Re-rides Ride %
2017 25 3 0 12.00 %
2016 15 2 0 13.33 %
2015 21 3 0 14.29 %
Totals 61 8 0 0.00 %

RODEO DETAIL

Date Location Rodeo SC Brand Ride Comments Stock Score Contestant Score
9/28/2017 Bakersfield, CA Kern County Fair Rodeo RO 359 0.00 22.00 / 22.50 0.00 / 0.00
7/22/2017 Salinas, CA California Rodeo Salinas BS 718 0.00 21.00 / 21.00 0.00 / 0.00
7/1/2017 Prescott, AZ World s Oldest Rodeo FL 155 0.00 21.50 / 20.00 0.00 / 0.00
6/10/2017 Glennville, CA Glennville Round-Up RO I602 81.50 20.50 / 20.50 21.00 / 19.50
6/9/2017 Livermore, CA Livermore Rodeo TB M28 0.00 22.00 / 19.50 0.00 / 0.00
6/8/2017 Union, OR EOLS Ed Miller Xtreme Bulls BI 266 0.00 19.50 / 21.00 0.00 / 0.00
6/6/2017 Sisters, OR Sisters Rodeo Xtreme Bulls CH 102 0.00 21.00 / 22.00 0.00 / 0.00
6/6/2017 Sisters, OR Sisters Rodeo Xtreme Bulls CH 53 80.00 19.50 / 19.50 20.50 / 20.50
6/3/2017 Santa Maria, CA Santa Maria Elks Rodeo FU 40 0.00 16.00 / 20.00 0.00 / 0.00
6/2/2017 Jurupa Valley, CA Jurupa Valley Pro Rodeo HR 14 0.00 19.00 / 18.50 0.00 / 0.00
5/17/2017 Redding, CA Redding Rodeo EM 718 0.00 20.50 / 21.00 0.00 / 0.00
5/13/2017 Woodlake, CA Woodlake Lions Rodeo RO 2108 0.00 16.00 / 20.00 0.00 / 0.00
5/12/2017 Sonora, CA Mother Lode Round-Up EM 109 0.00 21.00 / 21.00 0.00 / 0.00
5/6/2017 Riverdale, CA Riverdale Rodeo JD 401 0.00 21.50 / 21.50 0.00 / 0.00
5/6/2017 Stonyford, CA Stonyford Rodeo EM 030 0.00 18.00 / 18.00 0.00 / 0.00
4/28/2017 Clovis, CA Clovis Rodeo CH 53 77.50 20.50 / 20.50 20.00 / 16.50
4/27/2017 Springville, CA Springville Sierra Rodeo JD 0012 0.00 21.50 / 22.00 0.00 / 0.00
4/20/2017 Red Bluff, CA Red Bluff Round-Up TB 218 0.00 21.50 / 22.00 0.00 / 0.00
4/8/2017 Oakdale, CA Oakdale Saddle Club Rodeo BS 26-2 0.00 22.00 / 22.00 0.00 / 0.00
3/9/2017 Scottsdale, AZ Parada Del Sol SR 268 0.00 22.00 / 22.50 0.00 / 0.00
2/17/2017 Buckeye, AZ Helzapoppin PRCA Rodeo SR 22 0.00 18.00 / 18.50 0.00 / 0.00
10/21/2016 San Francisco, CA Grand National Rodeo FU 1474/2 0.00 20.00 / 20.50 0.00 / 0.00
10/7/2016 Lancaster, CA California Circuit Finals GR 801 0.00 20.00 / 20.50 0.00 / 0.00
10/7/2016 Lancaster, CA California Circuit Finals JD 130 0.00 21.00 / 21.50 0.00 / 0.00
10/6/2016 Lancaster, CA California Circuit Finals GR 28 0.00 21.00 / 20.50 0.00 / 0.00
Page of 1
Per Page
Official Gear Of The PRCA

 
 
 
PRCA National Sponsors
MGM Grand Polaris Ranger
Copyright © 2018 Professional Rodeo Cowboys Association. All rights reserved. No portion of ProRodeo.com may be duplicated, redistributed or manipulated in any form. By accessing any information beyond this page, you agree to abide by the Terms of Use.
PRCA Wrangler National Finals Rodeo Wrangler ProRodeo Tour Finale Presented by Justin Boots Xtreme Bulls RAM National Circuit Finals Rodeo ProRodeo Gear ProRodeo Tour